createdAt,value
2023-02-07T00:01:35.805Z,187.80
2023-02-07T00:04:03.706Z,177.40
2023-02-07T00:06:36.915Z,178.30
2023-02-07T00:09:12.400Z,183.70
2023-02-07T00:11:40.997Z,167.90
2023-02-07T00:14:11.705Z,166.40
2023-02-07T00:16:41.855Z,170.80
2023-02-07T00:19:09.927Z,175.40
2023-02-07T00:21:37.700Z,170.00
2023-02-07T00:24:05.766Z,165.40
2023-02-07T00:26:33.641Z,168.50
2023-02-07T00:29:01.521Z,150.80
2023-02-07T00:31:33.548Z,149.10
2023-02-07T00:34:05.545Z,164.00
2023-02-07T00:36:35.480Z,152.90
2023-02-07T00:39:15.771Z,164.60
2023-02-07T00:41:45.654Z,140.70
2023-02-07T00:44:13.578Z,153.00
2023-02-07T00:46:41.270Z,131.60
2023-02-07T00:49:10.502Z,132.80
2023-02-07T00:51:38.655Z,136.00
2023-02-07T00:54:07.064Z,122.50
2023-02-07T00:56:35.307Z,124.90
2023-02-07T00:59:03.123Z,108.80
2023-02-07T01:01:31.271Z,125.80
2023-02-07T01:03:59.397Z,120.20
2023-02-07T01:06:28.137Z,99.30
2023-02-07T01:08:59.295Z,100.50
2023-02-07T01:11:28.889Z,86.70
2023-02-07T01:14:00.842Z,102.90
2023-02-07T01:16:35.935Z,97.70
2023-02-07T01:19:08.600Z,104.20
2023-02-07T01:21:36.949Z,105.70
2023-02-07T01:24:05.704Z,97.10
2023-02-07T01:26:35.732Z,84.70
2023-02-07T01:29:05.026Z,102.30
2023-02-07T01:31:33.636Z,100.50
2023-02-07T01:34:05.216Z,98.40
2023-02-07T01:36:33.507Z,107.90
2023-02-07T01:39:01.279Z,122.90
2023-02-07T01:41:28.980Z,119.70
2023-02-07T01:44:06.364Z,111.20
2023-02-07T01:46:36.625Z,112.30
2023-02-07T01:49:13.193Z,114.50
2023-02-07T01:51:51.854Z,107.70
2023-02-07T01:54:21.861Z,107.70
2023-02-07T01:56:57.274Z,102.80
2023-02-07T01:59:26.617Z,98.30
2023-02-07T02:01:56.083Z,105.10
2023-02-07T02:04:24.335Z,101.10
2023-02-07T02:06:53.143Z,100.60
2023-02-07T02:09:20.824Z,97.10
2023-02-07T02:12:22.875Z,94.00
2023-02-07T02:15:16.962Z,100.30
2023-02-07T02:18:26.501Z,104.90
2023-02-07T02:21:34.725Z,110.30
2023-02-07T02:25:04.504Z,114.20
2023-02-07T02:28:06.259Z,122.20
2023-02-07T02:31:25.545Z,123.20
2023-02-07T02:34:32.386Z,108.80
2023-02-07T02:37:18.572Z,114.80
2023-02-07T02:40:01.204Z,111.10
2023-02-07T02:42:42.517Z,111.60
2023-02-07T02:45:25.298Z,101.30
2023-02-07T02:47:54.281Z,106.30
2023-02-07T02:50:26.907Z,99.00
2023-02-07T02:52:55.594Z,119.20
2023-02-07T02:55:55.047Z,114.60
2023-02-07T02:59:24.273Z,115.60
2023-02-07T03:02:02.640Z,99.70
2023-02-07T03:05:14.279Z,118.80
2023-02-07T03:08:09.774Z,102.70
2023-02-07T03:11:06.888Z,92.30
2023-02-07T03:14:19.292Z,113.50
2023-02-07T03:16:56.290Z,110.30
2023-02-07T03:19:40.573Z,96.20
2023-02-07T03:22:13.792Z,98.00
2023-02-07T03:24:53.767Z,99.70
2023-02-07T03:27:24.731Z,94.80
2023-02-07T03:29:57.878Z,85.50
2023-02-07T03:32:37.001Z,96.50
2023-02-07T03:35:29.839Z,96.60
2023-02-07T03:38:00.993Z,96.40
2023-02-07T03:40:40.469Z,101.20
2023-02-07T03:43:14.271Z,83.80
2023-02-07T03:45:42.660Z,102.40
2023-02-07T03:48:11.267Z,81.70
2023-02-07T03:50:39.171Z,100.80
2023-02-07T03:53:09.238Z,87.90
2023-02-07T03:55:37.290Z,102.60
2023-02-07T03:58:07.448Z,92.90
2023-02-07T04:00:36.472Z,84.90
2023-02-07T04:03:05.347Z,92.80
2023-02-07T04:05:33.143Z,86.80
2023-02-07T04:08:01.044Z,87.90
2023-02-07T04:10:29.336Z,94.70
2023-02-07T04:12:57.069Z,93.20
2023-02-07T04:15:25.079Z,86.60
2023-02-07T04:17:52.874Z,97.40
2023-02-07T04:20:20.691Z,92.40
2023-02-07T04:22:48.415Z,94.60
2023-02-07T04:25:16.257Z,93.50
2023-02-07T04:27:44.029Z,74.90
2023-02-07T04:30:12.560Z,99.40
2023-02-07T04:32:40.476Z,107.40
2023-02-07T04:35:08.883Z,90.80
2023-02-07T04:37:36.613Z,99.90
2023-02-07T04:40:04.923Z,93.60
2023-02-07T04:42:32.678Z,95.10
2023-02-07T04:45:00.357Z,89.40
2023-02-07T04:47:27.963Z,92.10
2023-02-07T04:49:55.670Z,94.30
2023-02-07T04:52:23.305Z,91.10
2023-02-07T04:54:51.146Z,87.80
2023-02-07T04:57:18.864Z,83.90
2023-02-07T04:59:46.562Z,89.10
2023-02-07T05:02:14.313Z,86.60
2023-02-07T05:04:42.010Z,85.40
2023-02-07T05:07:09.748Z,90.20
2023-02-07T05:09:37.520Z,94.00
2023-02-07T05:12:05.587Z,95.20
2023-02-07T05:14:33.305Z,93.70
2023-02-07T05:17:01.354Z,100.70
2023-02-07T05:19:30.096Z,98.80
2023-02-07T05:21:57.731Z,104.60
2023-02-07T05:24:25.418Z,103.20
2023-02-07T05:26:53.049Z,100.10
2023-02-07T05:29:20.754Z,115.50
2023-02-07T05:32:07.416Z,130.00
2023-02-07T05:34:35.402Z,142.20
2023-02-07T05:37:03.145Z,160.10
2023-02-07T05:39:30.926Z,152.00
2023-02-07T05:41:58.616Z,162.40
2023-02-07T05:44:26.347Z,157.30
2023-02-07T05:46:54.097Z,178.80
2023-02-07T05:49:21.828Z,164.60
2023-02-07T05:51:49.523Z,183.70
2023-02-07T05:54:19.662Z,158.30
2023-02-07T05:56:47.411Z,164.10
2023-02-07T05:59:15.406Z,169.90
2023-02-07T06:01:43.287Z,150.60
2023-02-07T06:04:10.980Z,151.00
2023-02-07T06:06:38.724Z,167.70
2023-02-07T06:09:06.580Z,164.50
2023-02-07T06:11:34.417Z,182.90
2023-02-07T06:14:02.113Z,189.60
2023-02-07T06:16:29.884Z,215.70
2023-02-07T06:18:57.614Z,211.00
2023-02-07T06:21:31.952Z,219.40
2023-02-07T06:24:09.131Z,224.20
2023-02-07T06:26:37.251Z,232.60
2023-02-07T06:29:04.924Z,239.20
2023-02-07T06:31:32.804Z,239.20
2023-02-07T06:34:00.732Z,229.40
2023-02-07T06:36:28.761Z,233.50
2023-02-07T06:38:57.452Z,225.30
2023-02-07T06:41:25.554Z,237.70
2023-02-07T06:43:53.295Z,239.20
2023-02-07T06:46:21.255Z,242.30
2023-02-07T06:48:49.202Z,240.10
2023-02-07T06:51:17.182Z,239.80
2023-02-07T06:53:44.990Z,221.30
2023-02-07T06:56:13.786Z,244.50
2023-02-07T06:58:41.520Z,260.30
2023-02-07T07:01:09.277Z,256.20
2023-02-07T07:03:37.321Z,258.50
2023-02-07T07:06:08.221Z,265.40
2023-02-07T07:08:36.175Z,260.40
2023-02-07T07:11:04.071Z,260.20
2023-02-07T07:13:31.902Z,259.00
2023-02-07T07:15:59.669Z,262.50
2023-02-07T07:18:27.474Z,260.10
2023-02-07T07:20:57.256Z,241.10
2023-02-07T07:23:25.016Z,239.50
2023-02-07T07:25:52.883Z,199.10
2023-02-07T07:28:20.856Z,172.40
2023-02-07T07:30:48.630Z,194.10
2023-02-07T07:33:16.329Z,181.90
2023-02-07T07:35:44.102Z,146.50
2023-02-07T07:38:12.844Z,191.00
2023-02-07T07:40:40.962Z,209.20
2023-02-07T07:43:09.004Z,197.10
2023-02-07T07:45:36.805Z,204.40
2023-02-07T07:48:04.879Z,218.00
2023-02-07T07:50:32.643Z,276.10
2023-02-07T07:53:03.157Z,264.30
2023-02-07T07:55:30.890Z,263.00
2023-02-07T07:57:58.709Z,261.70
2023-02-07T08:00:26.619Z,260.40
2023-02-07T08:02:54.356Z,273.90
2023-02-07T08:05:22.156Z,275.00
2023-02-07T08:07:51.050Z,272.20
2023-02-07T08:10:18.876Z,239.10
2023-02-07T08:12:46.818Z,200.00
2023-02-07T08:15:14.567Z,200.90
2023-02-07T08:17:42.490Z,193.10
2023-02-07T08:20:12.455Z,197.90
2023-02-07T08:22:40.734Z,193.20
2023-02-07T08:25:08.821Z,185.60
2023-02-07T08:27:37.712Z,151.10
2023-02-07T08:30:09.763Z,154.10
2023-02-07T08:32:37.552Z,177.10
2023-02-07T08:35:06.846Z,153.80
2023-02-07T08:37:34.652Z,167.30
2023-02-07T08:40:05.156Z,208.00
2023-02-07T08:42:33.408Z,238.10
2023-02-07T08:45:01.287Z,233.30
2023-02-07T08:47:28.957Z,217.30
2023-02-07T08:49:56.700Z,227.90
2023-02-07T08:52:24.404Z,275.40
2023-02-07T08:54:52.102Z,303.30
2023-02-07T08:57:23.308Z,287.70
2023-02-07T08:59:52.511Z,245.30
2023-02-07T09:02:20.417Z,268.60
2023-02-07T09:04:48.579Z,267.90
2023-02-07T09:07:16.319Z,278.40
2023-02-07T09:09:44.164Z,284.30
2023-02-07T09:12:13.125Z,273.60
2023-02-07T09:14:41.380Z,288.80
2023-02-07T09:17:09.570Z,281.70
2023-02-07T09:19:37.432Z,274.20
2023-02-07T09:22:05.585Z,226.50
2023-02-07T09:24:33.636Z,243.50
2023-02-07T09:27:01.934Z,245.40
2023-02-07T09:29:29.766Z,234.20
2023-02-07T09:31:57.779Z,229.10
2023-02-07T09:34:25.620Z,232.80
2023-02-07T09:36:54.184Z,276.00
2023-02-07T09:39:21.880Z,246.50
2023-02-07T09:42:28.011Z,230.90
2023-02-07T09:45:11.868Z,215.50
2023-02-07T09:47:45.572Z,204.70
2023-02-07T09:50:21.155Z,192.00
2023-02-07T09:53:05.827Z,180.30
2023-02-07T09:55:58.053Z,157.60
2023-02-07T09:58:44.435Z,182.90
2023-02-07T10:01:21.661Z,171.40
2023-02-07T10:04:23.223Z,104.40
2023-02-07T10:06:59.453Z,120.00
2023-02-07T10:09:36.770Z,138.60
2023-02-07T10:13:09.761Z,115.70
2023-02-07T10:16:19.659Z,96.60
2023-02-07T10:19:20.124Z,79.90
2023-02-07T10:22:03.544Z,178.30
2023-02-07T10:25:01.805Z,177.50
2023-02-07T10:28:06.763Z,161.90
2023-02-07T10:30:40.253Z,151.50
2023-02-07T10:33:21.869Z,148.70
2023-02-07T10:35:52.087Z,141.80
2023-02-07T10:38:33.121Z,138.50
2023-02-07T10:41:10.557Z,141.60
2023-02-07T10:43:40.155Z,170.90
2023-02-07T10:46:15.026Z,154.60
2023-02-07T10:48:42.782Z,132.70
2023-02-07T10:51:19.567Z,134.90
2023-02-07T10:54:02.081Z,125.20
2023-02-07T10:56:34.295Z,76.10
2023-02-07T10:59:02.197Z,92.50
2023-02-07T11:01:33.926Z,134.70
2023-02-07T11:04:02.050Z,125.80
2023-02-07T11:06:30.900Z,89.50
2023-02-07T11:09:12.311Z,88.20
2023-02-07T11:11:41.806Z,80.80
2023-02-07T11:14:18.492Z,87.60
2023-02-07T11:16:47.338Z,65.20
2023-02-07T11:19:22.104Z,65.60
2023-02-07T11:21:52.794Z,62.70
2023-02-07T11:24:34.433Z,42.00
2023-02-07T11:27:23.632Z,42.60
2023-02-07T11:30:09.199Z,40.40
2023-02-07T11:32:38.782Z,49.30
2023-02-07T11:35:10.061Z,40.20
2023-02-07T11:37:47.523Z,90.90
2023-02-07T11:40:45.533Z,85.00
2023-02-07T11:43:17.788Z,58.10
2023-02-07T11:45:50.146Z,59.20
2023-02-07T11:48:29.096Z,47.40
2023-02-07T11:51:01.346Z,41.20
2023-02-07T11:54:01.411Z,33.90
2023-02-07T11:56:42.876Z,30.70
2023-02-07T11:59:28.740Z,27.30
2023-02-07T12:02:04.480Z,20.00
2023-02-07T12:04:38.937Z,29.70
2023-02-07T12:07:15.026Z,34.70
2023-02-07T12:10:01.131Z,42.90
2023-02-07T12:13:06.725Z,53.60
2023-02-07T12:16:00.546Z,48.70
2023-02-07T12:19:19.289Z,49.10
2023-02-07T12:22:07.032Z,45.10
2023-02-07T12:24:56.858Z,43.70
2023-02-07T12:27:35.426Z,32.80
2023-02-07T12:30:06.790Z,40.70
2023-02-07T12:33:13.005Z,26.10
2023-02-07T12:36:13.756Z,29.40
2023-02-07T12:38:54.479Z,37.90
2023-02-07T12:41:42.653Z,26.90
2023-02-07T12:44:26.219Z,60.30
2023-02-07T12:47:01.608Z,52.10
2023-02-07T12:50:04.594Z,51.40
2023-02-07T12:53:15.703Z,52.40
2023-02-07T12:56:09.696Z,57.40
2023-02-07T12:59:00.361Z,52.60
2023-02-07T13:01:49.743Z,56.60
2023-02-07T13:04:38.789Z,37.60
2023-02-07T13:08:02.952Z,40.70
2023-02-07T13:11:13.307Z,33.60
2023-02-07T13:14:16.740Z,20.30
2023-02-07T13:17:20.982Z,56.80
2023-02-07T13:20:03.355Z,60.90
2023-02-07T13:23:00.483Z,57.60
2023-02-07T13:25:35.713Z,44.60
2023-02-07T13:28:14.619Z,53.60
2023-02-07T13:30:42.892Z,43.60
2023-02-07T13:33:39.924Z,54.70
2023-02-07T13:36:19.040Z,44.70
2023-02-07T13:39:22.268Z,41.70
2023-02-07T13:42:33.552Z,37.10
2023-02-07T13:45:17.779Z,46.30
2023-02-07T13:48:03.898Z,47.70
2023-02-07T13:50:56.385Z,63.40
2023-02-07T13:53:58.475Z,61.60
2023-02-07T13:56:55.117Z,62.20
2023-02-07T14:00:04.746Z,40.50
2023-02-07T14:02:46.508Z,35.50
2023-02-07T14:05:32.397Z,39.50
2023-02-07T14:08:18.181Z,29.60
2023-02-07T14:10:55.867Z,31.40
2023-02-07T14:13:26.364Z,30.10
2023-02-07T14:16:07.394Z,28.60
2023-02-07T14:18:53.055Z,41.60
2023-02-07T14:21:21.166Z,25.00
2023-02-07T14:24:09.148Z,30.70
2023-02-07T14:26:40.073Z,42.10
2023-02-07T14:29:20.385Z,42.30
2023-02-07T14:32:22.176Z,38.70
2023-02-07T14:35:25.431Z,49.30
2023-02-07T14:38:05.488Z,40.20
2023-02-07T14:41:09.485Z,41.90
2023-02-07T14:44:08.755Z,41.70
2023-02-07T14:46:52.196Z,35.30
2023-02-07T14:49:37.679Z,30.80
2023-02-07T14:52:13.711Z,20.90
2023-02-07T14:54:53.146Z,25.50
2023-02-07T14:57:35.538Z,33.40
2023-02-07T15:00:15.477Z,41.40
2023-02-07T15:02:54.756Z,42.70
2023-02-07T15:05:32.870Z,38.90
2023-02-07T15:08:03.760Z,49.40
2023-02-07T15:10:36.555Z,51.40
2023-02-07T15:13:19.547Z,63.10
2023-02-07T15:16:01.000Z,45.10
2023-02-07T15:18:34.258Z,62.70
2023-02-07T15:21:03.071Z,67.50
2023-02-07T15:23:32.096Z,59.40
2023-02-07T15:26:07.122Z,61.90
2023-02-07T15:28:35.183Z,56.10
2023-02-07T15:31:16.263Z,70.30
2023-02-07T15:33:47.046Z,72.30
2023-02-07T15:36:37.446Z,64.40
2023-02-07T15:39:28.137Z,33.40
2023-02-07T15:41:57.428Z,48.70
2023-02-07T15:44:29.269Z,54.90
2023-02-07T15:47:03.875Z,46.00
2023-02-07T15:49:42.391Z,41.70
2023-02-07T15:52:35.096Z,49.40
2023-02-07T15:55:18.405Z,77.20
2023-02-07T15:57:46.489Z,96.30
2023-02-07T16:00:38.006Z,65.80
2023-02-07T16:03:20.952Z,62.50
2023-02-07T16:05:49.653Z,46.60
2023-02-07T16:08:42.151Z,46.70
2023-02-07T16:11:31.203Z,67.50
2023-02-07T16:14:25.568Z,80.20
2023-02-07T16:16:56.925Z,54.20
2023-02-07T16:19:30.978Z,43.40
2023-02-07T16:22:07.398Z,59.10
2023-02-07T16:24:39.003Z,60.00
2023-02-07T16:27:07.628Z,58.40
2023-02-07T16:29:36.845Z,51.80
2023-02-07T16:32:05.099Z,55.90
2023-02-07T16:34:32.867Z,38.40
2023-02-07T16:37:00.558Z,53.40
2023-02-07T16:39:28.328Z,51.40
2023-02-07T16:42:05.099Z,51.10
2023-02-07T16:44:36.393Z,55.70
2023-02-07T16:47:04.126Z,54.50
2023-02-07T16:49:33.877Z,52.60
2023-02-07T16:52:01.603Z,34.10
2023-02-07T16:54:29.399Z,38.20
2023-02-07T16:57:03.554Z,32.50
2023-02-07T16:59:32.034Z,64.20
2023-02-07T17:01:59.825Z,68.10
2023-02-07T17:04:27.581Z,48.90
2023-02-07T17:06:55.482Z,48.40
2023-02-07T17:09:25.896Z,40.10
2023-02-07T17:11:54.649Z,40.70
2023-02-07T17:14:23.025Z,50.60
2023-02-07T17:16:51.802Z,43.90
2023-02-07T17:19:27.090Z,46.70
2023-02-07T17:21:56.640Z,47.00
2023-02-07T17:24:26.851Z,49.90
2023-02-07T17:26:56.475Z,47.50
2023-02-07T17:29:24.291Z,49.30
2023-02-07T17:31:52.079Z,48.10
2023-02-07T17:34:19.835Z,58.60
2023-02-07T17:36:50.076Z,68.20
2023-02-07T17:39:19.718Z,64.40
2023-02-07T17:41:48.510Z,78.60
2023-02-07T17:44:21.129Z,113.20
2023-02-07T17:46:49.517Z,104.20
2023-02-07T17:49:17.991Z,75.10
2023-02-07T17:51:45.909Z,55.60
2023-02-07T17:54:13.748Z,59.20
2023-02-07T17:56:41.507Z,46.10
2023-02-07T17:59:22.921Z,42.50
2023-02-07T18:01:51.840Z,45.90
2023-02-07T18:04:19.947Z,52.80
2023-02-07T18:06:48.046Z,57.00
2023-02-07T18:09:19.191Z,72.60
2023-02-07T18:11:47.535Z,70.90
2023-02-07T18:14:15.311Z,61.20
2023-02-07T18:16:43.164Z,72.60
2023-02-07T18:19:16.739Z,69.70
2023-02-07T18:21:44.943Z,74.30
2023-02-07T18:24:13.208Z,83.50
2023-02-07T18:26:41.568Z,77.00
2023-02-07T18:29:09.329Z,73.00
2023-02-07T18:31:37.155Z,77.10
2023-02-07T18:34:04.976Z,79.60
2023-02-07T18:36:40.285Z,80.40
2023-02-07T18:39:12.310Z,82.30
2023-02-07T18:41:42.258Z,97.60
2023-02-07T18:44:12.542Z,76.70
2023-02-07T18:46:40.529Z,80.70
2023-02-07T18:49:12.651Z,76.40
2023-02-07T18:51:40.685Z,67.60
2023-02-07T18:54:08.549Z,65.30
2023-02-07T18:56:37.175Z,62.70
2023-02-07T18:59:05.073Z,58.80
2023-02-07T19:01:35.002Z,68.10
2023-02-07T19:04:02.964Z,61.10
2023-02-07T19:06:34.530Z,89.10
2023-02-07T19:09:02.278Z,87.90
2023-02-07T19:11:30.094Z,77.70
2023-02-07T19:13:57.853Z,77.80
2023-02-07T19:16:27.159Z,83.30
2023-02-07T19:18:59.002Z,125.30
2023-02-07T19:21:29.302Z,323.50
2023-02-07T19:23:58.890Z,377.40
2023-02-07T19:26:26.886Z,248.80
2023-02-07T19:28:54.633Z,190.10
2023-02-07T19:31:24.694Z,107.80
2023-02-07T19:33:53.395Z,67.40
2023-02-07T19:36:23.539Z,60.30
2023-02-07T19:38:55.086Z,151.50
2023-02-07T19:41:29.116Z,269.40
2023-02-07T19:43:57.525Z,124.30
2023-02-07T19:46:26.261Z,43.70
2023-02-07T19:48:54.838Z,44.90
2023-02-07T19:51:31.896Z,60.90
2023-02-07T19:54:01.205Z,56.60
2023-02-07T19:56:33.280Z,57.30
2023-02-07T19:59:04.322Z,57.00
2023-02-07T20:01:34.847Z,55.40
2023-02-07T20:04:02.852Z,59.10
2023-02-07T20:06:33.505Z,57.60
2023-02-07T20:09:05.631Z,52.10
2023-02-07T20:11:34.952Z,60.50
2023-02-07T20:14:03.839Z,61.90
2023-02-07T20:16:36.544Z,59.20
2023-02-07T20:19:07.685Z,73.90
2023-02-07T20:21:37.519Z,73.20
2023-02-07T20:24:06.586Z,87.20
2023-02-07T20:26:39.693Z,81.50
2023-02-07T20:29:12.016Z,74.70
2023-02-07T20:31:40.933Z,67.40
2023-02-07T20:34:08.859Z,67.60
2023-02-07T20:36:41.749Z,67.60
2023-02-07T20:39:14.663Z,69.00
2023-02-07T20:41:43.306Z,67.50
2023-02-07T20:44:21.806Z,68.30
2023-02-07T20:46:50.945Z,65.00
2023-02-07T20:49:27.328Z,66.80
2023-02-07T20:51:59.473Z,68.20
2023-02-07T20:54:30.279Z,72.80
2023-02-07T20:56:58.529Z,64.50
2023-02-07T20:59:32.880Z,67.10
2023-02-07T21:02:01.848Z,76.50
2023-02-07T21:04:30.333Z,70.10
2023-02-07T21:06:58.106Z,64.50
2023-02-07T21:09:26.042Z,64.80
2023-02-07T21:11:55.047Z,68.40
2023-02-07T21:14:30.921Z,64.50
2023-02-07T21:17:09.032Z,67.90
2023-02-07T21:19:37.371Z,61.80
2023-02-07T21:22:05.632Z,74.20
2023-02-07T21:24:34.407Z,71.90
2023-02-07T21:27:03.315Z,84.10
2023-02-07T21:29:34.177Z,87.70
2023-02-07T21:32:02.926Z,83.60
2023-02-07T21:34:30.646Z,69.70
2023-02-07T21:36:58.376Z,69.60
2023-02-07T21:39:26.400Z,74.00
2023-02-07T21:41:54.030Z,68.90
2023-02-07T21:44:22.230Z,63.70
2023-02-07T21:46:52.731Z,74.20
2023-02-07T21:49:20.983Z,65.10
2023-02-07T21:51:50.338Z,56.80
2023-02-07T21:54:18.398Z,52.40
2023-02-07T21:56:48.932Z,80.30
2023-02-07T21:59:19.883Z,69.30
2023-02-07T22:01:48.167Z,62.80
2023-02-07T22:04:16.418Z,61.00
2023-02-07T22:06:47.187Z,55.30
2023-02-07T22:09:19.167Z,54.40
2023-02-07T22:11:46.841Z,53.10
2023-02-07T22:14:16.150Z,49.60
2023-02-07T22:16:44.302Z,55.00
2023-02-07T22:19:14.480Z,61.80
2023-02-07T22:21:42.152Z,61.50
2023-02-07T22:24:15.029Z,60.00
2023-02-07T22:26:42.968Z,53.20
2023-02-07T22:29:11.323Z,61.80
2023-02-07T22:31:43.958Z,72.50
2023-02-07T22:34:13.924Z,67.00
2023-02-07T22:36:44.226Z,60.50
2023-02-07T22:39:15.933Z,65.40
2023-02-07T22:41:44.151Z,57.50
2023-02-07T22:44:12.264Z,59.10
2023-02-07T22:46:40.139Z,65.70
2023-02-07T22:49:08.324Z,61.70
2023-02-07T22:51:39.146Z,58.80
2023-02-07T22:54:12.581Z,55.50
2023-02-07T22:56:40.416Z,58.40
2023-02-07T22:59:08.612Z,55.70
2023-02-07T23:01:40.616Z,67.30
2023-02-07T23:04:17.568Z,64.00
2023-02-07T23:06:46.994Z,69.20
2023-02-07T23:09:16.357Z,67.00
2023-02-07T23:11:44.400Z,62.90
2023-02-07T23:14:12.759Z,62.90
2023-02-07T23:16:41.043Z,65.90
2023-02-07T23:19:15.611Z,59.10
2023-02-07T23:21:44.120Z,60.40
2023-02-07T23:24:11.967Z,63.40
2023-02-07T23:26:40.276Z,63.10
2023-02-07T23:29:08.440Z,68.30
2023-02-07T23:31:36.526Z,61.70
2023-02-07T23:34:04.368Z,69.10
2023-02-07T23:36:32.155Z,65.60
2023-02-07T23:38:59.753Z,60.50
2023-02-07T23:41:27.853Z,62.40
2023-02-07T23:43:56.968Z,62.00
2023-02-07T23:46:24.792Z,56.90
2023-02-07T23:48:53.433Z,58.50
2023-02-07T23:51:21.692Z,60.10
2023-02-07T23:53:49.327Z,53.60
2023-02-07T23:56:21.762Z,54.50
2023-02-07T23:58:51.684Z,51.30
